METAR Data
IDs: Format: Raw Decoded Include TAF

Data at: 2149 UTC 08 Aug 2020

KPGA 082053Z AUTO VRB04KT 10SM CLR 36/M06 A3009 RMK AO2 SLP112 T03561061 56020 TSNO
KPGA 081953Z AUTO 36006KT 10SM CLR 34/M06 A3011 RMK AO2 SLP120 T03441061 TSNO
KPGA 081853Z AUTO 34007G16KT 10SM CLR 33/M06 A3013 RMK AO2 SLP126 T03281056 TSNO
KPGA 081753Z AUTO VRB04KT 10SM CLR 31/M06 A3016 RMK AO2 SLP137 T03111061 10311 20200 58005 TSNO
KPGA 081653Z AUTO 04003KT 10SM CLR 29/M09 A3017 RMK AO2 SLP141 T02941089 TSNO
KPGA 081553Z AUTO 32005KT 10SM CLR 27/M08 A3017 RMK AO2 SLP143 T02671083 TSNO
KPGA 081453Z AUTO 08003KT 10SM CLR 26/M08 A3017 RMK AO2 SLP144 T02611083 51016 TSNO
KPGA 081353Z AUTO 14005KT 10SM CLR 22/M07 A3016 RMK AO2 SLP142 T02221067 TSNO
KPGA 081253Z AUTO 12007KT 10SM CLR 20/M08 A3014 RMK AO2 SLP136 T02001078 TSNO
KPGA 081153Z AUTO 12005KT 10SM CLR 21/M10 A3012 RMK AO2 SLP127 T02111100 10283 20211 53010 TSNO
KPGA 081053Z AUTO 00000KT 10SM CLR 22/M11 A3011 RMK AO2 SLP122 T02221111 TSNO
KPGA 080953Z AUTO 25003KT 10SM CLR 22/M09 A3010 RMK AO2 SLP118 T02221094 TSNO
KPGA 080853Z AUTO 22004KT 10SM CLR 25/M12 A3009 RMK AO2 SLP113 T02501117 51012 TSNO
KPGA 080753Z AUTO 23003KT 10SM CLR 27/M13 A3008 RMK AO2 SLP107 T02671128 TSNO
KPGA 080653Z AUTO 21006KT 10SM CLR 28/M14 A3006 RMK AO2 SLP104 T02781139 403670200 TSNO
KPGA 080553Z AUTO 22005KT 10SM CLR 29/M13 A3005 RMK AO2 SLP099 T02891133 10367 20289 51017 TSNO
KPGA 080453Z AUTO 21006KT 10SM CLR 30/M15 A3003 RMK AO2 SLP094 T03001150 TSNO
KPGA 080353Z AUTO 22005KT 10SM CLR 32/M14 A3001 RMK AO2 SLP088 T03171144 TSNO
KPGA 080253Z AUTO 22007KT 10SM CLR 33/M13 A2999 RMK AO2 SLP080 T03281133 53006 TSNO
KPGA 080153Z AUTO 22007KT 190V270 10SM CLR 34/M13 A2997 RMK AO2 SLP075 T03441133 TSNO
KPGA 080053Z AUTO 19007KT 10SM CLR 36/M11 A2996 RMK AO2 SLP074 T03561111 TSNO
KPGA 072353Z AUTO VRB06KT 10SM CLR 36/M09 A2997 RMK AO2 SLP073 T03611089 10367 20311 56017 TSNO
KPGA 072253Z AUTO 21007KT 10SM CLR 36/M08 A2998 RMK AO2 SLP076 T03611083 TSNO
KPGA 072153Z AUTO 23009G18KT 10SM CLR 36/M09 A3000 RMK AO2 SLP085 T03561089 TSNO
KPGA 072053Z AUTO 00000KT 10SM CLR 35/M08 A3003 RMK AO2 SLP093 T03501078 56020 TSNO
KPGA 071953Z AUTO 07004KT 10SM CLR 34/M07 A3005 RMK AO2 SLP099 T03441072 TSNO
KPGA 071853Z AUTO VRB04KT 10SM CLR 32/M07 A3007 RMK AO2 SLP108 T03221072 TSNO
KPGA 071753Z AUTO 04007KT 10SM CLR 31/M09 A3009 RMK AO2 SLP115 T03111089 10322 20200 50001 TSNO
KPGA 071653Z AUTO VRB04KT 10SM CLR 29/M09 A3011 RMK AO2 SLP119 T02941094 TSNO
KPGA 071553Z AUTO VRB05KT 10SM CLR 28/M10 A3010 RMK AO2 SLP118 T02781100 TSNO
KPGA 071453Z AUTO 01004KT 10SM CLR 26/M09 A3009 RMK AO2 SLP115 T02561089 51018 TSNO
KPGA 071353Z AUTO 00000KT 10SM CLR 23/M08 A3008 RMK AO2 SLP111 T02331083 TSNO
KPGA 071253Z AUTO 00000KT 10SM CLR 20/M08 A3005 RMK AO2 SLP106 T02001078 TSNO
KPGA 071153Z AUTO 22004KT 10SM CLR 22/M09 A3003 RMK AO2 SLP094 T02221089 10289 20222 53010 TSNO
KPGA 071053Z AUTO 20006KT 10SM CLR 23/M11 A3001 RMK AO2 SLP087 T02331106 TSNO
KPGA 070953Z AUTO 20005KT 10SM CLR 22/M10 A3000 RMK AO2 SLP085 T02221100 TSNO